sensor_id;sensor_type;location;lat;lon;timestamp;P1;durP1;ratioP1;P2;durP2;ratioP2
38783;SDS011;24531;45.502;12.238;2022-11-20T00:01:40;7.43;;;4.80;;
38783;SDS011;24531;45.502;12.238;2022-11-20T00:04:06;7.68;;;5.32;;
38783;SDS011;24531;45.502;12.238;2022-11-20T00:06:33;6.15;;;4.72;;
38783;SDS011;24531;45.502;12.238;2022-11-20T00:08:59;7.10;;;5.05;;
38783;SDS011;24531;45.502;12.238;2022-11-20T00:11:26;8.52;;;5.68;;
38783;SDS011;24531;45.502;12.238;2022-11-20T00:13:54;6.78;;;4.75;;
38783;SDS011;24531;45.502;12.238;2022-11-20T00:16:23;6.20;;;4.50;;
38783;SDS011;24531;45.502;12.238;2022-11-20T00:18:50;7.43;;;4.50;;
38783;SDS011;24531;45.502;12.238;2022-11-20T00:21:20;6.68;;;4.95;;
38783;SDS011;24531;45.502;12.238;2022-11-20T00:23:49;7.15;;;4.72;;
38783;SDS011;24531;45.502;12.238;2022-11-20T00:26:16;9.30;;;6.47;;
38783;SDS011;24531;45.502;12.238;2022-11-20T00:28:44;7.53;;;5.60;;
38783;SDS011;24531;45.502;12.238;2022-11-20T00:31:14;8.00;;;4.95;;
38783;SDS011;24531;45.502;12.238;2022-11-20T00:33:41;6.82;;;4.97;;
38783;SDS011;24531;45.502;12.238;2022-11-20T00:36:08;7.25;;;4.93;;
38783;SDS011;24531;45.502;12.238;2022-11-20T00:38:36;7.55;;;4.95;;
38783;SDS011;24531;45.502;12.238;2022-11-20T00:41:03;6.28;;;3.88;;
38783;SDS011;24531;45.502;12.238;2022-11-20T00:43:30;6.18;;;4.03;;
38783;SDS011;24531;45.502;12.238;2022-11-20T00:45:57;6.78;;;4.40;;
38783;SDS011;24531;45.502;12.238;2022-11-20T00:48:23;7.65;;;4.88;;
38783;SDS011;24531;45.502;12.238;2022-11-20T00:50:49;6.80;;;4.38;;
38783;SDS011;24531;45.502;12.238;2022-11-20T00:53:14;7.25;;;4.60;;
38783;SDS011;24531;45.502;12.238;2022-11-20T00:55:40;7.10;;;5.30;;
38783;SDS011;24531;45.502;12.238;2022-11-20T00:58:06;5.38;;;4.05;;
38783;SDS011;24531;45.502;12.238;2022-11-20T01:00:31;5.70;;;3.92;;
38783;SDS011;24531;45.502;12.238;2022-11-20T01:02:57;5.50;;;3.63;;
38783;SDS011;24531;45.502;12.238;2022-11-20T01:05:23;6.65;;;4.50;;
38783;SDS011;24531;45.502;12.238;2022-11-20T01:07:48;5.15;;;3.53;;
38783;SDS011;24531;45.502;12.238;2022-11-20T01:10:14;4.70;;;3.88;;
38783;SDS011;24531;45.502;12.238;2022-11-20T01:12:40;8.25;;;4.40;;
38783;SDS011;24531;45.502;12.238;2022-11-20T01:15:05;8.57;;;3.00;;
38783;SDS011;24531;45.502;12.238;2022-11-20T01:17:31;4.32;;;3.13;;
38783;SDS011;24531;45.502;12.238;2022-11-20T01:19:57;3.83;;;2.83;;
38783;SDS011;24531;45.502;12.238;2022-11-20T01:22:22;4.15;;;2.90;;
38783;SDS011;24531;45.502;12.238;2022-11-20T01:24:48;3.97;;;2.63;;
38783;SDS011;24531;45.502;12.238;2022-11-20T01:27:14;3.15;;;2.75;;
38783;SDS011;24531;45.502;12.238;2022-11-20T01:29:39;4.75;;;2.88;;
38783;SDS011;24531;45.502;12.238;2022-11-20T01:32:05;3.20;;;1.90;;
38783;SDS011;24531;45.502;12.238;2022-11-20T01:34:30;3.67;;;2.00;;
38783;SDS011;24531;45.502;12.238;2022-11-20T01:36:56;4.95;;;2.50;;
38783;SDS011;24531;45.502;12.238;2022-11-20T01:39:22;4.45;;;2.72;;
38783;SDS011;24531;45.502;12.238;2022-11-20T01:41:50;2.33;;;1.85;;
38783;SDS011;24531;45.502;12.238;2022-11-20T01:47:14;1.63;;;1.52;;
38783;SDS011;24531;45.502;12.238;2022-11-20T01:49:46;2.13;;;1.63;;
38783;SDS011;24531;45.502;12.238;2022-11-20T01:52:19;2.30;;;1.55;;
38783;SDS011;24531;45.502;12.238;2022-11-20T01:55:09;1.73;;;1.40;;
38783;SDS011;24531;45.502;12.238;2022-11-20T01:57:37;2.30;;;1.55;;
38783;SDS011;24531;45.502;12.238;2022-11-20T02:00:09;2.20;;;1.40;;
38783;SDS011;24531;45.502;12.238;2022-11-20T02:02:37;1.35;;;0.95;;
38783;SDS011;24531;45.502;12.238;2022-11-20T02:05:09;3.67;;;1.15;;
38783;SDS011;24531;45.502;12.238;2022-11-20T02:07:43;2.65;;;1.60;;
38783;SDS011;24531;45.502;12.238;2022-11-20T02:10:09;2.78;;;1.70;;
38783;SDS011;24531;45.502;12.238;2022-11-20T02:12:36;1.67;;;1.25;;
38783;SDS011;24531;45.502;12.238;2022-11-20T02:15:20;2.45;;;1.40;;
38783;SDS011;24531;45.502;12.238;2022-11-20T02:17:45;1.63;;;1.17;;
38783;SDS011;24531;45.502;12.238;2022-11-20T02:20:11;2.95;;;1.85;;
38783;SDS011;24531;45.502;12.238;2022-11-20T02:22:43;2.28;;;1.65;;
38783;SDS011;24531;45.502;12.238;2022-11-20T02:25:19;2.65;;;1.65;;
38783;SDS011;24531;45.502;12.238;2022-11-20T02:27:46;2.42;;;1.40;;
38783;SDS011;24531;45.502;12.238;2022-11-20T02:30:12;2.30;;;1.50;;
38783;SDS011;24531;45.502;12.238;2022-11-20T02:32:39;2.03;;;1.40;;
38783;SDS011;24531;45.502;12.238;2022-11-20T02:35:08;1.77;;;1.20;;
38783;SDS011;24531;45.502;12.238;2022-11-20T02:37:43;2.50;;;1.40;;
38783;SDS011;24531;45.502;12.238;2022-11-20T02:40:12;2.35;;;1.20;;
38783;SDS011;24531;45.502;12.238;2022-11-20T02:42:41;1.67;;;1.38;;
38783;SDS011;24531;45.502;12.238;2022-11-20T02:45:07;1.30;;;0.85;;
38783;SDS011;24531;45.502;12.238;2022-11-20T02:47:42;1.73;;;1.20;;
38783;SDS011;24531;45.502;12.238;2022-11-20T02:50:08;4.38;;;1.40;;
38783;SDS011;24531;45.502;12.238;2022-11-20T02:52:33;1.98;;;1.13;;
38783;SDS011;24531;45.502;12.238;2022-11-20T02:54:59;3.25;;;1.42;;
38783;SDS011;24531;45.502;12.238;2022-11-20T02:57:25;1.90;;;1.35;;
38783;SDS011;24531;45.502;12.238;2022-11-20T02:59:51;1.48;;;1.23;;
38783;SDS011;24531;45.502;12.238;2022-11-20T03:02:16;1.85;;;1.20;;
38783;SDS011;24531;45.502;12.238;2022-11-20T03:04:42;2.35;;;1.40;;
38783;SDS011;24531;45.502;12.238;2022-11-20T03:07:08;3.20;;;0.95;;
38783;SDS011;24531;45.502;12.238;2022-11-20T03:09:34;1.77;;;1.30;;
38783;SDS011;24531;45.502;12.238;2022-11-20T03:12:00;1.42;;;1.08;;
38783;SDS011;24531;45.502;12.238;2022-11-20T03:14:26;1.33;;;1.00;;
38783;SDS011;24531;45.502;12.238;2022-11-20T03:16:51;1.15;;;0.95;;
38783;SDS011;24531;45.502;12.238;2022-11-20T03:19:17;1.50;;;1.05;;
38783;SDS011;24531;45.502;12.238;2022-11-20T03:21:43;1.83;;;1.45;;
38783;SDS011;24531;45.502;12.238;2022-11-20T03:24:08;2.35;;;1.30;;
38783;SDS011;24531;45.502;12.238;2022-11-20T03:26:34;1.80;;;1.15;;
38783;SDS011;24531;45.502;12.238;2022-11-20T03:29:01;1.13;;;0.93;;
38783;SDS011;24531;45.502;12.238;2022-11-20T03:31:28;4.15;;;1.40;;
38783;SDS011;24531;45.502;12.238;2022-11-20T03:33:56;1.50;;;0.90;;
38783;SDS011;24531;45.502;12.238;2022-11-20T03:36:23;1.35;;;0.90;;
38783;SDS011;24531;45.502;12.238;2022-11-20T03:38:49;1.63;;;0.90;;
38783;SDS011;24531;45.502;12.238;2022-11-20T03:41:18;2.22;;;1.23;;
38783;SDS011;24531;45.502;12.238;2022-11-20T03:43:53;1.52;;;1.10;;
38783;SDS011;24531;45.502;12.238;2022-11-20T03:46:23;2.55;;;1.33;;
38783;SDS011;24531;45.502;12.238;2022-11-20T03:48:49;1.88;;;1.30;;
38783;SDS011;24531;45.502;12.238;2022-11-20T03:51:17;1.40;;;1.00;;
38783;SDS011;24531;45.502;12.238;2022-11-20T03:53:55;0.88;;;0.88;;
38783;SDS011;24531;45.502;12.238;2022-11-20T03:56:23;1.25;;;0.90;;
38783;SDS011;24531;45.502;12.238;2022-11-20T03:58:53;1.33;;;1.15;;
38783;SDS011;24531;45.502;12.238;2022-11-20T04:01:23;1.77;;;1.00;;
38783;SDS011;24531;45.502;12.238;2022-11-20T04:03:55;1.38;;;0.80;;
38783;SDS011;24531;45.502;12.238;2022-11-20T04:06:34;1.98;;;1.15;;
38783;SDS011;24531;45.502;12.238;2022-11-20T04:09:02;1.63;;;0.90;;
38783;SDS011;24531;45.502;12.238;2022-11-20T04:11:31;1.30;;;1.05;;
38783;SDS011;24531;45.502;12.238;2022-11-20T04:14:02;1.92;;;1.10;;
38783;SDS011;24531;45.502;12.238;2022-11-20T04:16:31;0.60;;;0.60;;
38783;SDS011;24531;45.502;12.238;2022-11-20T04:19:00;5.28;;;1.00;;
38783;SDS011;24531;45.502;12.238;2022-11-20T04:21:27;2.97;;;1.25;;
38783;SDS011;24531;45.502;12.238;2022-11-20T04:23:53;2.83;;;1.70;;
38783;SDS011;24531;45.502;12.238;2022-11-20T04:26:19;4.45;;;2.05;;
38783;SDS011;24531;45.502;12.238;2022-11-20T04:28:45;2.78;;;1.35;;
38783;SDS011;24531;45.502;12.238;2022-11-20T04:31:12;1.35;;;1.17;;
38783;SDS011;24531;45.502;12.238;2022-11-20T04:33:39;2.60;;;1.67;;
38783;SDS011;24531;45.502;12.238;2022-11-20T04:36:07;3.78;;;1.40;;
38783;SDS011;24531;45.502;12.238;2022-11-20T04:38:43;2.30;;;1.45;;
38783;SDS011;24531;45.502;12.238;2022-11-20T04:41:11;3.17;;;1.33;;
38783;SDS011;24531;45.502;12.238;2022-11-20T04:43:44;3.63;;;1.80;;
38783;SDS011;24531;45.502;12.238;2022-11-20T04:46:13;4.05;;;1.60;;
38783;SDS011;24531;45.502;12.238;2022-11-20T04:48:38;2.33;;;1.23;;
38783;SDS011;24531;45.502;12.238;2022-11-20T04:51:07;1.35;;;1.05;;
38783;SDS011;24531;45.502;12.238;2022-11-20T04:53:32;2.13;;;1.20;;
38783;SDS011;24531;45.502;12.238;2022-11-20T04:55:59;2.50;;;1.27;;
38783;SDS011;24531;45.502;12.238;2022-11-20T04:58:25;2.58;;;1.13;;
38783;SDS011;24531;45.502;12.238;2022-11-20T05:00:51;1.90;;;1.30;;
38783;SDS011;24531;45.502;12.238;2022-11-20T05:03:17;2.55;;;1.20;;
38783;SDS011;24531;45.502;12.238;2022-11-20T05:08:18;1.95;;;1.30;;
38783;SDS011;24531;45.502;12.238;2022-11-20T05:10:44;2.10;;;1.00;;
38783;SDS011;24531;45.502;12.238;2022-11-20T05:13:13;1.38;;;1.00;;
38783;SDS011;24531;45.502;12.238;2022-11-20T05:15:41;1.35;;;1.15;;
38783;SDS011;24531;45.502;12.238;2022-11-20T05:18:07;2.80;;;1.40;;
38783;SDS011;24531;45.502;12.238;2022-11-20T05:20:32;5.00;;;1.20;;
38783;SDS011;24531;45.502;12.238;2022-11-20T05:22:58;4.93;;;1.88;;
38783;SDS011;24531;45.502;12.238;2022-11-20T05:25:24;3.20;;;1.27;;
38783;SDS011;24531;45.502;12.238;2022-11-20T05:27:50;2.13;;;1.50;;
38783;SDS011;24531;45.502;12.238;2022-11-20T05:30:15;2.15;;;1.13;;
38783;SDS011;24531;45.502;12.238;2022-11-20T05:32:41;1.75;;;1.30;;
38783;SDS011;24531;45.502;12.238;2022-11-20T05:35:07;1.30;;;1.02;;
38783;SDS011;24531;45.502;12.238;2022-11-20T05:37:33;1.38;;;1.00;;
38783;SDS011;24531;45.502;12.238;2022-11-20T05:39:58;2.38;;;1.00;;
38783;SDS011;24531;45.502;12.238;2022-11-20T05:42:24;3.50;;;1.30;;
38783;SDS011;24531;45.502;12.238;2022-11-20T05:44:56;2.85;;;1.17;;
38783;SDS011;24531;45.502;12.238;2022-11-20T05:47:22;2.78;;;1.23;;
38783;SDS011;24531;45.502;12.238;2022-11-20T05:49:48;3.05;;;1.30;;
38783;SDS011;24531;45.502;12.238;2022-11-20T05:52:14;2.72;;;1.42;;
38783;SDS011;24531;45.502;12.238;2022-11-20T05:54:39;1.88;;;1.50;;
38783;SDS011;24531;45.502;12.238;2022-11-20T05:57:05;2.00;;;1.13;;
38783;SDS011;24531;45.502;12.238;2022-11-20T05:59:30;1.60;;;1.23;;
38783;SDS011;24531;45.502;12.238;2022-11-20T06:01:56;3.47;;;1.70;;
38783;SDS011;24531;45.502;12.238;2022-11-20T06:04:21;2.70;;;1.48;;
38783;SDS011;24531;45.502;12.238;2022-11-20T06:06:47;2.08;;;1.65;;
38783;SDS011;24531;45.502;12.238;2022-11-20T06:09:13;3.47;;;1.92;;
38783;SDS011;24531;45.502;12.238;2022-11-20T06:11:38;4.10;;;1.85;;
38783;SDS011;24531;45.502;12.238;2022-11-20T06:14:04;3.20;;;2.35;;
38783;SDS011;24531;45.502;12.238;2022-11-20T06:16:30;3.80;;;2.20;;
38783;SDS011;24531;45.502;12.238;2022-11-20T06:18:55;4.10;;;2.30;;
38783;SDS011;24531;45.502;12.238;2022-11-20T06:21:21;3.70;;;2.35;;
38783;SDS011;24531;45.502;12.238;2022-11-20T06:23:48;3.58;;;2.45;;
38783;SDS011;24531;45.502;12.238;2022-11-20T06:26:18;5.15;;;2.72;;
38783;SDS011;24531;45.502;12.238;2022-11-20T06:28:55;3.55;;;2.55;;
38783;SDS011;24531;45.502;12.238;2022-11-20T06:31:26;4.10;;;2.83;;
38783;SDS011;24531;45.502;12.238;2022-11-20T06:33:52;3.47;;;2.33;;
38783;SDS011;24531;45.502;12.238;2022-11-20T06:36:19;3.75;;;2.85;;
38783;SDS011;24531;45.502;12.238;2022-11-20T06:38:48;2.80;;;2.10;;
38783;SDS011;24531;45.502;12.238;2022-11-20T06:41:17;5.75;;;2.42;;
38783;SDS011;24531;45.502;12.238;2022-11-20T08:16:12;5.90;;;4.70;;
38783;SDS011;24531;45.502;12.238;2022-11-20T08:18:38;6.55;;;4.20;;
38783;SDS011;24531;45.502;12.238;2022-11-20T08:21:04;5.43;;;3.75;;
38783;SDS011;24531;45.502;12.238;2022-11-20T08:23:30;5.80;;;3.95;;
38783;SDS011;24531;45.502;12.238;2022-11-20T08:25:56;10.63;;;4.75;;
38783;SDS011;24531;45.502;12.238;2022-11-20T08:28:21;5.65;;;4.82;;
38783;SDS011;24531;45.502;12.238;2022-11-20T08:30:47;8.25;;;4.50;;
38783;SDS011;24531;45.502;12.238;2022-11-20T08:33:13;5.28;;;4.20;;
38783;SDS011;24531;45.502;12.238;2022-11-20T08:35:39;6.32;;;4.55;;
38783;SDS011;24531;45.502;12.238;2022-11-20T08:38:06;7.13;;;4.43;;
38783;SDS011;24531;45.502;12.238;2022-11-20T08:40:32;6.88;;;4.45;;
38783;SDS011;24531;45.502;12.238;2022-11-20T08:42:58;4.78;;;4.10;;
38783;SDS011;24531;45.502;12.238;2022-11-20T08:45:24;5.75;;;4.32;;
38783;SDS011;24531;45.502;12.238;2022-11-20T08:47:49;6.82;;;3.95;;
38783;SDS011;24531;45.502;12.238;2022-11-20T08:50:15;6.13;;;4.05;;
38783;SDS011;24531;45.502;12.238;2022-11-20T08:52:41;6.15;;;4.45;;
38783;SDS011;24531;45.502;12.238;2022-11-20T08:55:08;7.15;;;4.88;;
38783;SDS011;24531;45.502;12.238;2022-11-20T08:57:35;7.18;;;4.43;;
38783;SDS011;24531;45.502;12.238;2022-11-20T09:00:03;6.30;;;4.00;;
38783;SDS011;24531;45.502;12.238;2022-11-20T09:02:41;6.43;;;4.78;;
38783;SDS011;24531;45.502;12.238;2022-11-20T09:11:30;10.43;;;4.80;;
38783;SDS011;24531;45.502;12.238;2022-11-20T09:16:44;6.50;;;4.53;;
38783;SDS011;24531;45.502;12.238;2022-11-20T09:46:48;6.40;;;4.78;;
38783;SDS011;24531;45.502;12.238;2022-11-20T09:52:00;7.00;;;5.03;;
38783;SDS011;24531;45.502;12.238;2022-11-20T09:54:46;16.00;;;4.25;;
38783;SDS011;24531;45.502;12.238;2022-11-20T09:57:18;6.13;;;4.10;;
38783;SDS011;24531;45.502;12.238;2022-11-20T09:59:49;6.70;;;4.38;;
38783;SDS011;24531;45.502;12.238;2022-11-20T10:08:07;5.38;;;4.38;;
38783;SDS011;24531;45.502;12.238;2022-11-20T10:21:38;9.23;;;2.95;;
38783;SDS011;24531;45.502;12.238;2022-11-20T10:24:19;4.53;;;2.33;;
38783;SDS011;24531;45.502;12.238;2022-11-20T10:29:39;4.50;;;1.85;;
38783;SDS011;24531;45.502;12.238;2022-11-20T10:32:11;2.17;;;1.67;;
38783;SDS011;24531;45.502;12.238;2022-11-20T10:34:48;2.08;;;1.58;;
38783;SDS011;24531;45.502;12.238;2022-11-20T10:45:02;3.22;;;1.83;;
38783;SDS011;24531;45.502;12.238;2022-11-20T10:47:40;3.75;;;2.10;;
38783;SDS011;24531;45.502;12.238;2022-11-20T10:50:08;3.10;;;1.80;;
38783;SDS011;24531;45.502;12.238;2022-11-20T11:10:54;2.20;;;1.75;;
38783;SDS011;24531;45.502;12.238;2022-11-20T11:13:23;4.20;;;2.58;;
38783;SDS011;24531;45.502;12.238;2022-11-20T11:15:50;2.80;;;1.90;;
38783;SDS011;24531;45.502;12.238;2022-11-20T11:18:29;3.88;;;2.28;;
38783;SDS011;24531;45.502;12.238;2022-11-20T11:20:57;2.35;;;1.75;;
38783;SDS011;24531;45.502;12.238;2022-11-20T11:23:32;2.50;;;2.08;;
38783;SDS011;24531;45.502;12.238;2022-11-20T11:26:05;4.13;;;2.35;;
38783;SDS011;24531;45.502;12.238;2022-11-20T11:36:01;2.70;;;2.20;;
38783;SDS011;24531;45.502;12.238;2022-11-20T11:41:23;2.95;;;2.20;;
38783;SDS011;24531;45.502;12.238;2022-11-20T11:52:32;3.50;;;2.30;;
38783;SDS011;24531;45.502;12.238;2022-11-20T12:42:55;2.55;;;0.80;;
38783;SDS011;24531;45.502;12.238;2022-11-20T12:49:29;0.90;;;0.70;;
38783;SDS011;24531;45.502;12.238;2022-11-20T12:55:13;2.88;;;0.80;;
38783;SDS011;24531;45.502;12.238;2022-11-20T13:00:54;0.85;;;0.68;;
38783;SDS011;24531;45.502;12.238;2022-11-20T13:04:12;1.83;;;0.95;;
38783;SDS011;24531;45.502;12.238;2022-11-20T13:07:01;0.88;;;0.77;;
38783;SDS011;24531;45.502;12.238;2022-11-20T13:09:29;1.98;;;0.73;;
38783;SDS011;24531;45.502;12.238;2022-11-20T13:17:57;0.98;;;0.57;;
38783;SDS011;24531;45.502;12.238;2022-11-20T13:20:25;0.93;;;0.75;;
38783;SDS011;24531;45.502;12.238;2022-11-20T13:22:52;1.48;;;0.80;;
38783;SDS011;24531;45.502;12.238;2022-11-20T13:25:29;1.42;;;0.80;;
38783;SDS011;24531;45.502;12.238;2022-11-20T13:46:09;2.47;;;1.10;;
38783;SDS011;24531;45.502;12.238;2022-11-20T13:48:43;2.08;;;1.02;;
38783;SDS011;24531;45.502;12.238;2022-11-20T13:57:04;3.80;;;0.90;;
38783;SDS011;24531;45.502;12.238;2022-11-20T14:08:13;1.42;;;0.82;;
38783;SDS011;24531;45.502;12.238;2022-11-20T14:17:46;1.48;;;0.90;;
38783;SDS011;24531;45.502;12.238;2022-11-20T14:20:17;0.80;;;0.60;;
38783;SDS011;24531;45.502;12.238;2022-11-20T14:23:00;3.03;;;0.80;;
38783;SDS011;24531;45.502;12.238;2022-11-20T14:26:15;1.73;;;1.00;;
38783;SDS011;24531;45.502;12.238;2022-11-20T14:32:26;1.90;;;1.10;;
38783;SDS011;24531;45.502;12.238;2022-11-20T14:35:29;2.10;;;1.27;;
38783;SDS011;24531;45.502;12.238;2022-11-20T14:37:59;1.02;;;0.93;;
38783;SDS011;24531;45.502;12.238;2022-11-20T14:40:38;0.68;;;0.68;;
38783;SDS011;24531;45.502;12.238;2022-11-20T14:43:21;1.10;;;0.82;;
38783;SDS011;24531;45.502;12.238;2022-11-20T14:54:58;1.50;;;0.80;;
38783;SDS011;24531;45.502;12.238;2022-11-20T15:00:44;1.40;;;0.80;;
38783;SDS011;24531;45.502;12.238;2022-11-20T15:06:58;6.43;;;0.95;;
38783;SDS011;24531;45.502;12.238;2022-11-20T15:53:58;3.72;;;1.88;;
38783;SDS011;24531;45.502;12.238;2022-11-20T16:07:01;3.20;;;2.05;;
38783;SDS011;24531;45.502;12.238;2022-11-20T16:41:08;7.05;;;4.22;;
38783;SDS011;24531;45.502;12.238;2022-11-20T16:43:48;7.15;;;4.05;;
38783;SDS011;24531;45.502;12.238;2022-11-20T16:46:16;13.63;;;4.50;;
38783;SDS011;24531;45.502;12.238;2022-11-20T16:48:43;8.02;;;5.68;;
38783;SDS011;24531;45.502;12.238;2022-11-20T16:51:09;9.32;;;5.05;;
38783;SDS011;24531;45.502;12.238;2022-11-20T16:53:36;9.77;;;5.18;;
38783;SDS011;24531;45.502;12.238;2022-11-20T16:56:09;9.43;;;6.05;;
38783;SDS011;24531;45.502;12.238;2022-11-20T16:58:37;9.68;;;6.32;;
38783;SDS011;24531;45.502;12.238;2022-11-20T17:01:06;13.57;;;7.03;;
38783;SDS011;24531;45.502;12.238;2022-11-20T17:03:35;15.93;;;8.35;;
38783;SDS011;24531;45.502;12.238;2022-11-20T17:08:40;14.32;;;8.68;;
38783;SDS011;24531;45.502;12.238;2022-11-20T17:11:07;11.27;;;7.95;;
38783;SDS011;24531;45.502;12.238;2022-11-20T17:13:34;13.07;;;7.68;;
38783;SDS011;24531;45.502;12.238;2022-11-20T17:16:04;11.05;;;6.78;;
38783;SDS011;24531;45.502;12.238;2022-11-20T17:18:31;8.60;;;5.88;;
38783;SDS011;24531;45.502;12.238;2022-11-20T17:20:58;9.75;;;4.95;;
38783;SDS011;24531;45.502;12.238;2022-11-20T17:23:26;6.82;;;4.47;;
38783;SDS011;24531;45.502;12.238;2022-11-20T17:25:59;8.70;;;4.68;;
38783;SDS011;24531;45.502;12.238;2022-11-20T17:28:40;10.27;;;4.45;;
38783;SDS011;24531;45.502;12.238;2022-11-20T17:31:10;7.78;;;4.43;;
38783;SDS011;24531;45.502;12.238;2022-11-20T17:33:41;6.85;;;4.78;;
38783;SDS011;24531;45.502;12.238;2022-11-20T17:36:08;13.70;;;6.07;;
38783;SDS011;24531;45.502;12.238;2022-11-20T17:38:35;11.43;;;5.50;;
38783;SDS011;24531;45.502;12.238;2022-11-20T17:41:05;12.13;;;5.63;;
38783;SDS011;24531;45.502;12.238;2022-11-20T17:43:36;9.60;;;6.22;;
38783;SDS011;24531;45.502;12.238;2022-11-20T17:48:32;12.07;;;6.60;;
38783;SDS011;24531;45.502;12.238;2022-11-20T17:50:59;13.50;;;7.38;;
38783;SDS011;24531;45.502;12.238;2022-11-20T17:53:26;13.15;;;7.20;;
38783;SDS011;24531;45.502;12.238;2022-11-20T17:55:56;14.68;;;7.03;;
38783;SDS011;24531;45.502;12.238;2022-11-20T17:58:41;14.73;;;6.85;;
38783;SDS011;24531;45.502;12.238;2022-11-20T18:01:07;10.38;;;6.18;;
38783;SDS011;24531;45.502;12.238;2022-11-20T18:03:33;10.10;;;6.03;;
38783;SDS011;24531;45.502;12.238;2022-11-20T18:06:06;9.77;;;6.00;;
38783;SDS011;24531;45.502;12.238;2022-11-20T18:08:40;10.27;;;6.47;;
38783;SDS011;24531;45.502;12.238;2022-11-20T18:11:12;9.13;;;6.22;;
38783;SDS011;24531;45.502;12.238;2022-11-20T18:13:43;9.88;;;5.95;;
38783;SDS011;24531;45.502;12.238;2022-11-20T18:16:29;13.27;;;7.22;;
38783;SDS011;24531;45.502;12.238;2022-11-20T18:18:57;11.60;;;6.85;;
38783;SDS011;24531;45.502;12.238;2022-11-20T18:21:24;9.70;;;6.07;;
38783;SDS011;24531;45.502;12.238;2022-11-20T18:23:51;12.55;;;7.65;;
38783;SDS011;24531;45.502;12.238;2022-11-20T18:26:17;10.93;;;6.78;;
38783;SDS011;24531;45.502;12.238;2022-11-20T18:28:43;11.88;;;7.22;;
38783;SDS011;24531;45.502;12.238;2022-11-20T18:31:09;13.98;;;7.55;;
38783;SDS011;24531;45.502;12.238;2022-11-20T18:33:35;11.20;;;7.35;;
38783;SDS011;24531;45.502;12.238;2022-11-20T18:36:13;11.82;;;6.57;;
38783;SDS011;24531;45.502;12.238;2022-11-20T18:38:42;10.23;;;6.82;;
38783;SDS011;24531;45.502;12.238;2022-11-20T18:41:09;12.13;;;7.57;;
38783;SDS011;24531;45.502;12.238;2022-11-20T18:43:54;9.82;;;6.70;;
38783;SDS011;24531;45.502;12.238;2022-11-20T18:46:38;9.30;;;6.82;;
38783;SDS011;24531;45.502;12.238;2022-11-20T18:49:04;10.27;;;6.82;;
38783;SDS011;24531;45.502;12.238;2022-11-20T18:51:30;21.25;;;9.68;;
38783;SDS011;24531;45.502;12.238;2022-11-20T18:53:55;34.90;;;15.63;;
38783;SDS011;24531;45.502;12.238;2022-11-20T18:56:21;72.25;;;29.55;;
38783;SDS011;24531;45.502;12.238;2022-11-20T18:58:47;84.82;;;31.13;;
38783;SDS011;24531;45.502;12.238;2022-11-20T19:01:12;69.00;;;26.60;;
38783;SDS011;24531;45.502;12.238;2022-11-20T19:03:38;54.50;;;22.05;;
38783;SDS011;24531;45.502;12.238;2022-11-20T19:06:04;44.85;;;18.15;;
38783;SDS011;24531;45.502;12.238;2022-11-20T19:08:29;41.25;;;18.05;;
38783;SDS011;24531;45.502;12.238;2022-11-20T19:11:08;33.38;;;14.52;;
38783;SDS011;24531;45.502;12.238;2022-11-20T19:13:35;30.75;;;13.95;;
38783;SDS011;24531;45.502;12.238;2022-11-20T19:16:02;33.67;;;12.35;;
38783;SDS011;24531;45.502;12.238;2022-11-20T19:18:33;23.92;;;10.52;;
38783;SDS011;24531;45.502;12.238;2022-11-20T19:21:05;20.90;;;9.68;;
38783;SDS011;24531;45.502;12.238;2022-11-20T19:23:32;16.13;;;8.82;;
38783;SDS011;24531;45.502;12.238;2022-11-20T19:25:58;16.48;;;7.68;;
38783;SDS011;24531;45.502;12.238;2022-11-20T19:28:25;17.52;;;7.80;;
38783;SDS011;24531;45.502;12.238;2022-11-20T19:30:51;15.13;;;7.75;;
38783;SDS011;24531;45.502;12.238;2022-11-20T19:33:17;12.98;;;7.53;;
38783;SDS011;24531;45.502;12.238;2022-11-20T19:35:42;11.52;;;7.03;;
38783;SDS011;24531;45.502;12.238;2022-11-20T19:38:08;13.50;;;8.05;;
38783;SDS011;24531;45.502;12.238;2022-11-20T19:40:34;11.98;;;7.70;;
38783;SDS011;24531;45.502;12.238;2022-11-20T19:43:00;13.85;;;8.38;;
38783;SDS011;24531;45.502;12.238;2022-11-20T19:45:26;13.93;;;8.32;;
38783;SDS011;24531;45.502;12.238;2022-11-20T19:47:51;13.73;;;8.63;;
38783;SDS011;24531;45.502;12.238;2022-11-20T19:50:17;13.80;;;8.43;;
38783;SDS011;24531;45.502;12.238;2022-11-20T19:52:42;17.05;;;9.80;;
38783;SDS011;24531;45.502;12.238;2022-11-20T19:55:08;14.13;;;9.18;;
38783;SDS011;24531;45.502;12.238;2022-11-20T19:57:34;17.10;;;10.38;;
38783;SDS011;24531;45.502;12.238;2022-11-20T20:00:00;15.48;;;10.02;;
38783;SDS011;24531;45.502;12.238;2022-11-20T20:02:26;16.05;;;10.82;;
38783;SDS011;24531;45.502;12.238;2022-11-20T20:04:51;17.50;;;11.02;;
38783;SDS011;24531;45.502;12.238;2022-11-20T20:07:17;19.80;;;11.38;;
38783;SDS011;24531;45.502;12.238;2022-11-20T20:09:42;18.75;;;12.25;;
38783;SDS011;24531;45.502;12.238;2022-11-20T20:12:08;14.65;;;10.98;;
38783;SDS011;24531;45.502;12.238;2022-11-20T20:14:34;15.70;;;11.23;;
38783;SDS011;24531;45.502;12.238;2022-11-20T20:16:59;16.52;;;10.68;;
38783;SDS011;24531;45.502;12.238;2022-11-20T20:22:00;13.52;;;8.98;;
38783;SDS011;24531;45.502;12.238;2022-11-20T20:24:26;15.73;;;9.18;;
38783;SDS011;24531;45.502;12.238;2022-11-20T20:26:51;15.07;;;9.18;;
38783;SDS011;24531;45.502;12.238;2022-11-20T20:29:17;13.38;;;9.75;;
38783;SDS011;24531;45.502;12.238;2022-11-20T20:31:46;15.63;;;9.95;;
38783;SDS011;24531;45.502;12.238;2022-11-20T20:34:12;20.25;;;12.15;;
38783;SDS011;24531;45.502;12.238;2022-11-20T20:36:37;17.40;;;11.82;;
38783;SDS011;24531;45.502;12.238;2022-11-20T20:39:03;15.85;;;10.60;;
38783;SDS011;24531;45.502;12.238;2022-11-20T20:41:29;17.92;;;11.40;;
38783;SDS011;24531;45.502;12.238;2022-11-20T20:43:55;16.90;;;11.10;;
38783;SDS011;24531;45.502;12.238;2022-11-20T20:46:39;16.98;;;10.23;;
38783;SDS011;24531;45.502;12.238;2022-11-20T20:49:05;17.23;;;10.45;;
38783;SDS011;24531;45.502;12.238;2022-11-20T20:51:31;13.80;;;10.00;;
38783;SDS011;24531;45.502;12.238;2022-11-20T20:53:57;12.30;;;8.98;;
38783;SDS011;24531;45.502;12.238;2022-11-20T20:56:23;15.60;;;9.30;;
38783;SDS011;24531;45.502;12.238;2022-11-20T20:58:49;11.35;;;8.43;;
38783;SDS011;24531;45.502;12.238;2022-11-20T21:01:16;12.70;;;8.57;;
38783;SDS011;24531;45.502;12.238;2022-11-20T21:03:43;14.25;;;8.60;;
38783;SDS011;24531;45.502;12.238;2022-11-20T21:06:09;17.40;;;11.00;;
38783;SDS011;24531;45.502;12.238;2022-11-20T21:08:35;21.45;;;13.13;;
38783;SDS011;24531;45.502;12.238;2022-11-20T21:11:09;24.17;;;14.95;;
38783;SDS011;24531;45.502;12.238;2022-11-20T21:13:36;23.90;;;15.93;;
38783;SDS011;24531;45.502;12.238;2022-11-20T21:16:03;23.38;;;14.52;;
38783;SDS011;24531;45.502;12.238;2022-11-20T21:18:30;21.17;;;13.20;;
38783;SDS011;24531;45.502;12.238;2022-11-20T21:20:56;20.83;;;12.60;;
38783;SDS011;24531;45.502;12.238;2022-11-20T21:23:40;20.13;;;12.60;;
38783;SDS011;24531;45.502;12.238;2022-11-20T21:26:10;18.13;;;12.02;;
38783;SDS011;24531;45.502;12.238;2022-11-20T21:28:36;17.02;;;11.98;;
38783;SDS011;24531;45.502;12.238;2022-11-20T21:31:03;15.32;;;10.55;;
38783;SDS011;24531;45.502;12.238;2022-11-20T21:33:41;15.20;;;10.23;;
38783;SDS011;24531;45.502;12.238;2022-11-20T21:36:08;16.05;;;10.05;;
38783;SDS011;24531;45.502;12.238;2022-11-20T21:38:35;14.05;;;10.20;;